Sherman, Texas
Current Conditions -  °F | °C
As of 6:15 AM on Monday 24 Nov 2014 (Local Time) from KGYI Reporting Station
Clear Clear  
Wind Chill:   Ceiling: Unl
Heat Index:   Visibility: 10mi
Dew Point:   Wind: 3mph
Humidity: 90%   Direction: 200°SSW
Pressure: 29.96"   Gusts: NA
Location:  33.64°N, 96.61°W
Report Text: KGYI 241215Z AUTO 20003KT 10SM CLR 04/02 A2996 RMK AO2 T00380023
Loading
Personal Weather Stations






























Interactive Weather Map New forecast layout! Learn more

10-Day Weather Forecast

Advertisements
Track Severe Weather on mobile